AST,Max TemperatureF,Mean TemperatureF,Min TemperatureF,Max Dew PointF,MeanDew PointF,Min DewpointF,Max Humidity, Mean Humidity, Min Humidity, Max Sea Level PressureIn, Mean Sea Level PressureIn, Min Sea Level PressureIn, Max VisibilityMiles, Mean VisibilityMiles, Min VisibilityMiles, Max Wind SpeedMPH, Mean Wind SpeedMPH, Max Gust SpeedMPH,PrecipitationIn, CloudCover, Events, WindDirDegrees
2011-10-1,89,86,82,81,78,77,89,78,66,29.92,29.85,29.80,6,6,6,23,18,,0.00,3,,102
2011-10-2,89,86,82,77,77,75,84,74,66,29.95,29.88,29.83,6,6,6,20,16,,0.00,3,,104
2011-10-3,89,86,82,77,74,32,79,68,16,29.95,29.88,29.83,6,6,6,18,17,,0.00,3,,98
2011-10-4,89,84,78,77,75,73,89,75,59,29.95,29.88,29.83,6,6,6,17,10,,0.00,3,Rain,102
2011-10-5,89,83,77,79,75,70,89,73,62,29.92,29.85,29.77,6,6,6,15,7,,0.00,2,Rain,106
2011-10-6,87,81,75,77,75,73,100,76,66,29.89,29.83,29.77,6,6,1,17,15,26,0.00,3,Rain,107
2011-10-7,89,86,82,79,77,75,84,79,66,29.89,29.82,29.77,6,6,6,17,16,,0.00,3,,100
2011-10-8,87,84,82,79,77,75,84,78,70,29.89,29.83,29.77,6,6,6,22,20,,0.00,3,,105
2011-10-9,89,86,82,77,76,73,84,76,62,29.89,29.84,29.80,6,6,6,24,19,,0.00,1,,99
2011-10-10,91,86,82,77,76,73,84,76,55,29.92,29.86,29.80,6,6,6,18,13,,0.00,2,,98
2011-10-11,89,84,80,77,77,75,89,75,62,29.92,29.85,29.80,6,6,6,13,6,,0.00,2,,110
2011-10-12,89,84,80,79,76,73,89,75,62,29.92,29.85,29.77,6,6,6,13,10,,0.00,4,Rain,107
2011-10-13,89,84,78,79,75,73,94,77,59,29.89,29.83,29.77,6,6,6,9,5,,0.00,3,,99
2011-10-14,87,82,78,77,75,72,89,74,62,29.89,29.83,29.77,6,6,6,29,14,,0.00,3,Rain,99
2011-10-15,89,86,82,75,73,70,79,68,52,29.92,29.85,29.80,6,6,6,17,14,26,0.00,2,,91
2011-10-16,89,84,78,75,73,72,83,70,55,29.92,29.86,29.80,6,6,6,12,4,,0.00,3,,91
2011-10-17,89,84,78,77,74,72,89,78,55,29.89,29.84,29.77,6,6,5,10,6,,0.00,3,Rain,86
2011-10-18,87,82,78,79,75,73,94,74,62,29.92,29.86,29.80,6,6,6,20,11,,0.00,2,Rain,108
2011-10-19,89,84,78,75,74,72,89,75,55,29.95,29.90,29.86,6,6,6,10,4,,0.00,3,,99
2011-10-20,89,84,78,77,74,70,83,72,52,29.95,29.90,29.83,6,6,6,13,6,,0.00,3,Rain,25
2011-10-21,86,80,75,77,75,73,100,81,70,29.89,29.84,29.80,6,6,1,13,3,,0.00,3,Rain-Thunderstorm,310
2011-10-22,86,82,77,75,74,72,89,78,66,29.89,29.83,29.77,6,6,6,18,9,,0.00,3,Rain,295
2011-10-23,87,84,78,79,75,73,84,78,66,29.95,29.88,29.83,6,6,6,6,3,,0.00,2,Rain,337
2011-10-24,86,82,77,79,74,72,94,80,62,29.95,29.88,29.80,6,6,6,9,3,,0.00,3,Rain,42
2011-10-25,87,82,77,81,76,73,94,81,66,29.89,29.82,29.77,6,6,6,9,4,,0.00,4,,37
2011-10-26,87,82,77,79,76,75,94,80,66,29.86,29.79,29.74,6,6,6,13,3,,0.00,2,,108
2011-10-27,87,84,80,77,76,75,84,77,66,29.86,29.79,29.74,6,6,6,18,15,,0.00,3,,98
2011-10-28,91,86,82,77,76,73,79,73,55,29.89,29.82,29.77,6,6,6,21,13,,0.00,3,,97
2011-10-29,87,82,77,77,76,73,89,76,66,29.92,29.85,29.80,6,6,6,21,12,33,0.00,3,,99
2011-10-30,87,84,80,77,75,73,84,76,66,29.92,29.86,29.80,6,6,6,18,13,,0.00,3,,98
2011-10-31,87,82,78,77,76,75,89,77,66,29.89,29.86,29.80,6,6,6,13,6,24,0.00,3,,97